sensor_id;sensor_type;location;lat;lon;timestamp;P1;durP1;ratioP1;P2;durP2;ratioP2
27847;SDS011;15212;48.830;8.730;2023-01-01T00:01:12;4.87;;;2.30;;
27847;SDS011;15212;48.830;8.730;2023-01-01T00:03:42;5.78;;;2.47;;
27847;SDS011;15212;48.830;8.730;2023-01-01T00:06:12;5.75;;;3.05;;
27847;SDS011;15212;48.830;8.730;2023-01-01T00:08:41;4.97;;;2.62;;
27847;SDS011;15212;48.830;8.730;2023-01-01T00:11:09;8.00;;;2.98;;
27847;SDS011;15212;48.830;8.730;2023-01-01T00:13:39;9.98;;;3.40;;
27847;SDS011;15212;48.830;8.730;2023-01-01T00:16:10;4.85;;;2.37;;
27847;SDS011;15212;48.830;8.730;2023-01-01T00:18:40;4.12;;;2.17;;
27847;SDS011;15212;48.830;8.730;2023-01-01T00:21:10;5.55;;;2.50;;
27847;SDS011;15212;48.830;8.730;2023-01-01T00:23:40;4.45;;;1.72;;
27847;SDS011;15212;48.830;8.730;2023-01-01T00:26:13;6.53;;;2.60;;
27847;SDS011;15212;48.830;8.730;2023-01-01T00:28:44;9.83;;;3.15;;
27847;SDS011;15212;48.830;8.730;2023-01-01T00:31:14;10.50;;;4.12;;
27847;SDS011;15212;48.830;8.730;2023-01-01T00:33:51;7.40;;;3.17;;
27847;SDS011;15212;48.830;8.730;2023-01-01T00:36:21;4.78;;;2.50;;
27847;SDS011;15212;48.830;8.730;2023-01-01T00:38:51;3.62;;;2.12;;
27847;SDS011;15212;48.830;8.730;2023-01-01T00:41:20;4.75;;;2.08;;
27847;SDS011;15212;48.830;8.730;2023-01-01T00:43:49;4.05;;;1.98;;
27847;SDS011;15212;48.830;8.730;2023-01-01T00:46:19;6.75;;;2.67;;
27847;SDS011;15212;48.830;8.730;2023-01-01T00:48:48;5.72;;;2.17;;
27847;SDS011;15212;48.830;8.730;2023-01-01T00:51:16;5.35;;;2.47;;
27847;SDS011;15212;48.830;8.730;2023-01-01T00:53:44;5.22;;;2.70;;
27847;SDS011;15212;48.830;8.730;2023-01-01T00:56:13;5.65;;;3.15;;
27847;SDS011;15212;48.830;8.730;2023-01-01T00:58:41;4.78;;;2.47;;
27847;SDS011;15212;48.830;8.730;2023-01-01T01:01:10;4.55;;;2.30;;
27847;SDS011;15212;48.830;8.730;2023-01-01T01:03:38;4.75;;;2.15;;
27847;SDS011;15212;48.830;8.730;2023-01-01T01:06:08;4.83;;;1.90;;
27847;SDS011;15212;48.830;8.730;2023-01-01T01:08:42;4.60;;;1.85;;
27847;SDS011;15212;48.830;8.730;2023-01-01T01:11:13;5.65;;;2.10;;
27847;SDS011;15212;48.830;8.730;2023-01-01T01:13:45;4.87;;;2.00;;
27847;SDS011;15212;48.830;8.730;2023-01-01T01:16:20;4.03;;;1.87;;
27847;SDS011;15212;48.830;8.730;2023-01-01T01:18:59;4.15;;;2.10;;
27847;SDS011;15212;48.830;8.730;2023-01-01T01:21:30;4.42;;;2.22;;
27847;SDS011;15212;48.830;8.730;2023-01-01T01:24:01;4.70;;;2.20;;
27847;SDS011;15212;48.830;8.730;2023-01-01T01:26:31;5.62;;;2.60;;
27847;SDS011;15212;48.830;8.730;2023-01-01T01:29:01;4.12;;;1.95;;
27847;SDS011;15212;48.830;8.730;2023-01-01T01:31:31;3.95;;;1.72;;
27847;SDS011;15212;48.830;8.730;2023-01-01T01:34:00;5.30;;;1.25;;
27847;SDS011;15212;48.830;8.730;2023-01-01T01:36:29;3.65;;;1.50;;
27847;SDS011;15212;48.830;8.730;2023-01-01T01:38:57;3.30;;;1.65;;
27847;SDS011;15212;48.830;8.730;2023-01-01T01:41:25;4.12;;;1.32;;
27847;SDS011;15212;48.830;8.730;2023-01-01T01:43:55;3.98;;;1.30;;
27847;SDS011;15212;48.830;8.730;2023-01-01T01:46:28;2.52;;;1.12;;
27847;SDS011;15212;48.830;8.730;2023-01-01T01:49:11;2.45;;;1.45;;
27847;SDS011;15212;48.830;8.730;2023-01-01T01:51:55;3.08;;;1.42;;
27847;SDS011;15212;48.830;8.730;2023-01-01T01:54:25;1.75;;;1.20;;
27847;SDS011;15212;48.830;8.730;2023-01-01T01:57:00;2.42;;;1.47;;
27847;SDS011;15212;48.830;8.730;2023-01-01T01:59:32;3.50;;;1.37;;
27847;SDS011;15212;48.830;8.730;2023-01-01T02:02:05;3.00;;;1.22;;
27847;SDS011;15212;48.830;8.730;2023-01-01T02:04:45;2.08;;;1.27;;
27847;SDS011;15212;48.830;8.730;2023-01-01T02:07:14;2.62;;;1.40;;
27847;SDS011;15212;48.830;8.730;2023-01-01T02:09:44;2.58;;;1.40;;
27847;SDS011;15212;48.830;8.730;2023-01-01T02:12:13;2.80;;;1.40;;
27847;SDS011;15212;48.830;8.730;2023-01-01T02:14:41;3.20;;;1.55;;
27847;SDS011;15212;48.830;8.730;2023-01-01T02:17:14;3.95;;;2.05;;
27847;SDS011;15212;48.830;8.730;2023-01-01T02:31:31;5.28;;;1.80;;
27847;SDS011;15212;48.830;8.730;2023-01-01T02:34:05;3.42;;;2.00;;
27847;SDS011;15212;48.830;8.730;2023-01-01T02:36:37;4.03;;;2.20;;
27847;SDS011;15212;48.830;8.730;2023-01-01T02:39:08;4.42;;;2.00;;
27847;SDS011;15212;48.830;8.730;2023-01-01T02:41:40;6.22;;;2.05;;
27847;SDS011;15212;48.830;8.730;2023-01-01T02:44:14;7.45;;;1.85;;
27847;SDS011;15212;48.830;8.730;2023-01-01T02:46:44;5.17;;;2.42;;
27847;SDS011;15212;48.830;8.730;2023-01-01T02:49:13;3.65;;;1.70;;
27847;SDS011;15212;48.830;8.730;2023-01-01T02:54:32;3.30;;;1.72;;
27847;SDS011;15212;48.830;8.730;2023-01-01T02:57:25;3.50;;;1.67;;
27847;SDS011;15212;48.830;8.730;2023-01-01T03:00:03;3.22;;;1.65;;
27847;SDS011;15212;48.830;8.730;2023-01-01T03:05:39;5.35;;;1.70;;
27847;SDS011;15212;48.830;8.730;2023-01-01T03:08:32;10.60;;;2.27;;
27847;SDS011;15212;48.830;8.730;2023-01-01T03:11:15;3.77;;;1.82;;
27847;SDS011;15212;48.830;8.730;2023-01-01T03:13:50;2.75;;;1.45;;
27847;SDS011;15212;48.830;8.730;2023-01-01T03:16:53;4.70;;;1.67;;
27847;SDS011;15212;48.830;8.730;2023-01-01T03:19:29;4.60;;;1.50;;
27847;SDS011;15212;48.830;8.730;2023-01-01T03:22:04;5.03;;;1.60;;
27847;SDS011;15212;48.830;8.730;2023-01-01T03:24:44;5.78;;;1.25;;
27847;SDS011;15212;48.830;8.730;2023-01-01T03:27:33;4.87;;;1.40;;
27847;SDS011;15212;48.830;8.730;2023-01-01T03:30:08;2.80;;;1.50;;
27847;SDS011;15212;48.830;8.730;2023-01-01T03:32:47;2.77;;;1.57;;
27847;SDS011;15212;48.830;8.730;2023-01-01T03:35:27;3.00;;;1.37;;
27847;SDS011;15212;48.830;8.730;2023-01-01T03:38:22;4.45;;;1.30;;
27847;SDS011;15212;48.830;8.730;2023-01-01T03:40:59;4.62;;;1.20;;
27847;SDS011;15212;48.830;8.730;2023-01-01T03:44:16;3.58;;;1.45;;
27847;SDS011;15212;48.830;8.730;2023-01-01T03:46:16;4.50;;;1.00;;
27847;SDS011;15212;48.830;8.730;2023-01-01T03:48:48;3.70;;;1.15;;
27847;SDS011;15212;48.830;8.730;2023-01-01T03:51:31;3.70;;;1.32;;
27847;SDS011;15212;48.830;8.730;2023-01-01T03:57:49;7.35;;;1.15;;
27847;SDS011;15212;48.830;8.730;2023-01-01T04:00:31;4.70;;;1.12;;
27847;SDS011;15212;48.830;8.730;2023-01-01T04:03:06;6.67;;;1.37;;
27847;SDS011;15212;48.830;8.730;2023-01-01T04:05:44;5.78;;;1.12;;
27847;SDS011;15212;48.830;8.730;2023-01-01T04:08:12;3.45;;;1.10;;
27847;SDS011;15212;48.830;8.730;2023-01-01T04:10:47;1.52;;;0.88;;
27847;SDS011;15212;48.830;8.730;2023-01-01T04:13:19;2.27;;;0.93;;
27847;SDS011;15212;48.830;8.730;2023-01-01T04:15:47;2.27;;;1.12;;
27847;SDS011;15212;48.830;8.730;2023-01-01T04:18:16;2.62;;;1.10;;
27847;SDS011;15212;48.830;8.730;2023-01-01T04:20:45;3.55;;;1.50;;
27847;SDS011;15212;48.830;8.730;2023-01-01T04:23:13;2.87;;;1.25;;
27847;SDS011;15212;48.830;8.730;2023-01-01T04:25:41;1.92;;;1.05;;
27847;SDS011;15212;48.830;8.730;2023-01-01T04:28:10;4.47;;;1.15;;
27847;SDS011;15212;48.830;8.730;2023-01-01T04:30:38;3.65;;;1.00;;
27847;SDS011;15212;48.830;8.730;2023-01-01T04:33:06;2.62;;;1.05;;
27847;SDS011;15212;48.830;8.730;2023-01-01T04:35:35;2.98;;;0.90;;
27847;SDS011;15212;48.830;8.730;2023-01-01T04:38:03;2.05;;;1.10;;
27847;SDS011;15212;48.830;8.730;2023-01-01T04:40:32;5.53;;;1.27;;
27847;SDS011;15212;48.830;8.730;2023-01-01T04:43:00;4.30;;;0.98;;
27847;SDS011;15212;48.830;8.730;2023-01-01T04:45:29;3.58;;;1.17;;
27847;SDS011;15212;48.830;8.730;2023-01-01T04:48:02;1.95;;;0.90;;
27847;SDS011;15212;48.830;8.730;2023-01-01T04:50:30;3.12;;;1.05;;
27847;SDS011;15212;48.830;8.730;2023-01-01T04:52:59;3.65;;;1.17;;
27847;SDS011;15212;48.830;8.730;2023-01-01T04:55:27;1.85;;;0.95;;
27847;SDS011;15212;48.830;8.730;2023-01-01T04:57:56;3.10;;;1.55;;
27847;SDS011;15212;48.830;8.730;2023-01-01T05:00:24;4.87;;;1.10;;
27847;SDS011;15212;48.830;8.730;2023-01-01T05:02:52;1.70;;;0.90;;
27847;SDS011;15212;48.830;8.730;2023-01-01T05:05:21;2.67;;;1.00;;
27847;SDS011;15212;48.830;8.730;2023-01-01T05:07:50;4.70;;;1.00;;
27847;SDS011;15212;48.830;8.730;2023-01-01T05:10:18;2.15;;;1.02;;
27847;SDS011;15212;48.830;8.730;2023-01-01T05:12:47;2.98;;;1.15;;
27847;SDS011;15212;48.830;8.730;2023-01-01T05:15:15;6.10;;;2.22;;
27847;SDS011;15212;48.830;8.730;2023-01-01T05:17:44;2.35;;;1.05;;
27847;SDS011;15212;48.830;8.730;2023-01-01T05:20:12;2.35;;;1.07;;
27847;SDS011;15212;48.830;8.730;2023-01-01T05:22:40;4.45;;;1.02;;
27847;SDS011;15212;48.830;8.730;2023-01-01T05:25:10;4.05;;;1.20;;
27847;SDS011;15212;48.830;8.730;2023-01-01T05:27:39;3.15;;;1.02;;
27847;SDS011;15212;48.830;8.730;2023-01-01T05:30:07;2.85;;;1.10;;
27847;SDS011;15212;48.830;8.730;2023-01-01T05:32:36;3.52;;;0.90;;
27847;SDS011;15212;48.830;8.730;2023-01-01T05:35:04;4.35;;;1.15;;
27847;SDS011;15212;48.830;8.730;2023-01-01T05:37:33;5.15;;;1.27;;
27847;SDS011;15212;48.830;8.730;2023-01-01T05:40:01;1.47;;;0.98;;
27847;SDS011;15212;48.830;8.730;2023-01-01T05:42:30;7.95;;;0.90;;
27847;SDS011;15212;48.830;8.730;2023-01-01T05:44:58;4.92;;;1.00;;
27847;SDS011;15212;48.830;8.730;2023-01-01T05:47:27;2.85;;;1.32;;
27847;SDS011;15212;48.830;8.730;2023-01-01T05:49:55;3.10;;;1.10;;
27847;SDS011;15212;48.830;8.730;2023-01-01T05:52:24;4.30;;;1.10;;
27847;SDS011;15212;48.830;8.730;2023-01-01T05:54:52;2.62;;;1.07;;
27847;SDS011;15212;48.830;8.730;2023-01-01T05:57:20;3.83;;;1.07;;
27847;SDS011;15212;48.830;8.730;2023-01-01T05:59:49;6.15;;;1.10;;
27847;SDS011;15212;48.830;8.730;2023-01-01T06:02:17;4.70;;;1.00;;
27847;SDS011;15212;48.830;8.730;2023-01-01T06:04:46;3.08;;;1.10;;
27847;SDS011;15212;48.830;8.730;2023-01-01T06:07:14;5.45;;;0.90;;
27847;SDS011;15212;48.830;8.730;2023-01-01T06:09:42;6.55;;;1.45;;
27847;SDS011;15212;48.830;8.730;2023-01-01T06:12:11;6.85;;;1.10;;
27847;SDS011;15212;48.830;8.730;2023-01-01T06:14:39;2.65;;;1.10;;
27847;SDS011;15212;48.830;8.730;2023-01-01T06:17:08;4.58;;;1.67;;
27847;SDS011;15212;48.830;8.730;2023-01-01T06:19:36;5.65;;;1.27;;
27847;SDS011;15212;48.830;8.730;2023-01-01T06:22:04;5.03;;;1.15;;
27847;SDS011;15212;48.830;8.730;2023-01-01T06:24:33;1.35;;;1.00;;
27847;SDS011;15212;48.830;8.730;2023-01-01T06:27:01;1.95;;;1.00;;
27847;SDS011;15212;48.830;8.730;2023-01-01T06:29:30;2.77;;;1.35;;
27847;SDS011;15212;48.830;8.730;2023-01-01T06:31:58;2.08;;;0.90;;
27847;SDS011;15212;48.830;8.730;2023-01-01T06:34:26;4.15;;;1.07;;
27847;SDS011;15212;48.830;8.730;2023-01-01T06:36:55;2.02;;;0.95;;
27847;SDS011;15212;48.830;8.730;2023-01-01T06:39:23;1.80;;;1.02;;
27847;SDS011;15212;48.830;8.730;2023-01-01T06:41:52;8.68;;;1.50;;
27847;SDS011;15212;48.830;8.730;2023-01-01T06:44:20;5.67;;;1.17;;
27847;SDS011;15212;48.830;8.730;2023-01-01T06:46:48;2.55;;;1.00;;
27847;SDS011;15212;48.830;8.730;2023-01-01T06:49:17;3.77;;;1.10;;
27847;SDS011;15212;48.830;8.730;2023-01-01T06:51:45;3.50;;;1.15;;
27847;SDS011;15212;48.830;8.730;2023-01-01T06:54:13;3.50;;;1.27;;
27847;SDS011;15212;48.830;8.730;2023-01-01T06:56:42;2.10;;;1.10;;
27847;SDS011;15212;48.830;8.730;2023-01-01T06:59:10;5.12;;;1.20;;
27847;SDS011;15212;48.830;8.730;2023-01-01T07:01:39;2.58;;;1.40;;
27847;SDS011;15212;48.830;8.730;2023-01-01T07:04:09;4.20;;;1.20;;
27847;SDS011;15212;48.830;8.730;2023-01-01T07:06:39;4.10;;;1.00;;
27847;SDS011;15212;48.830;8.730;2023-01-01T07:09:08;5.42;;;1.42;;
27847;SDS011;15212;48.830;8.730;2023-01-01T07:11:36;3.92;;;1.25;;
27847;SDS011;15212;48.830;8.730;2023-01-01T07:14:05;4.33;;;1.40;;
27847;SDS011;15212;48.830;8.730;2023-01-01T07:16:33;2.83;;;1.20;;
27847;SDS011;15212;48.830;8.730;2023-01-01T07:19:01;4.33;;;1.30;;
27847;SDS011;15212;48.830;8.730;2023-01-01T07:21:30;5.28;;;1.40;;
27847;SDS011;15212;48.830;8.730;2023-01-01T07:24:09;2.35;;;1.20;;
27847;SDS011;15212;48.830;8.730;2023-01-01T07:26:40;5.12;;;1.30;;
27847;SDS011;15212;48.830;8.730;2023-01-01T07:29:10;4.85;;;1.15;;
27847;SDS011;15212;48.830;8.730;2023-01-01T07:31:39;2.30;;;1.15;;
27847;SDS011;15212;48.830;8.730;2023-01-01T07:34:17;3.12;;;1.30;;
27847;SDS011;15212;48.830;8.730;2023-01-01T07:36:43;4.50;;;1.12;;
27847;SDS011;15212;48.830;8.730;2023-01-01T07:39:12;4.95;;;1.25;;
27847;SDS011;15212;48.830;8.730;2023-01-01T07:41:40;4.78;;;1.35;;
27847;SDS011;15212;48.830;8.730;2023-01-01T07:44:09;7.30;;;1.15;;
27847;SDS011;15212;48.830;8.730;2023-01-01T07:46:37;2.10;;;0.95;;
27847;SDS011;15212;48.830;8.730;2023-01-01T07:49:05;3.98;;;1.60;;
27847;SDS011;15212;48.830;8.730;2023-01-01T07:51:34;3.08;;;1.12;;
27847;SDS011;15212;48.830;8.730;2023-01-01T07:54:02;3.55;;;1.20;;
27847;SDS011;15212;48.830;8.730;2023-01-01T07:56:32;2.85;;;1.25;;
27847;SDS011;15212;48.830;8.730;2023-01-01T07:59:02;4.75;;;1.50;;
27847;SDS011;15212;48.830;8.730;2023-01-01T08:01:33;6.28;;;1.30;;
27847;SDS011;15212;48.830;8.730;2023-01-01T08:04:04;4.30;;;1.30;;
27847;SDS011;15212;48.830;8.730;2023-01-01T08:06:33;2.52;;;1.10;;
27847;SDS011;15212;48.830;8.730;2023-01-01T08:09:03;3.87;;;1.27;;
27847;SDS011;15212;48.830;8.730;2023-01-01T08:11:31;5.85;;;1.30;;
27847;SDS011;15212;48.830;8.730;2023-01-01T08:13:59;5.65;;;1.20;;
27847;SDS011;15212;48.830;8.730;2023-01-01T08:16:28;5.58;;;1.47;;
27847;SDS011;15212;48.830;8.730;2023-01-01T08:18:56;4.40;;;1.80;;
27847;SDS011;15212;48.830;8.730;2023-01-01T08:21:25;3.58;;;1.52;;
27847;SDS011;15212;48.830;8.730;2023-01-01T08:23:53;6.87;;;1.77;;
27847;SDS011;15212;48.830;8.730;2023-01-01T08:26:28;2.05;;;1.40;;
27847;SDS011;15212;48.830;8.730;2023-01-01T08:29:00;2.33;;;1.27;;
27847;SDS011;15212;48.830;8.730;2023-01-01T08:31:31;3.50;;;1.60;;
27847;SDS011;15212;48.830;8.730;2023-01-01T08:34:00;2.33;;;1.15;;
27847;SDS011;15212;48.830;8.730;2023-01-01T08:36:28;4.83;;;1.30;;
27847;SDS011;15212;48.830;8.730;2023-01-01T08:38:57;3.77;;;1.10;;
27847;SDS011;15212;48.830;8.730;2023-01-01T08:41:25;3.85;;;1.22;;
27847;SDS011;15212;48.830;8.730;2023-01-01T08:43:54;4.22;;;1.02;;
27847;SDS011;15212;48.830;8.730;2023-01-01T08:46:22;5.12;;;1.35;;
27847;SDS011;15212;48.830;8.730;2023-01-01T08:48:50;3.00;;;1.32;;
27847;SDS011;15212;48.830;8.730;2023-01-01T08:51:19;4.87;;;1.47;;
27847;SDS011;15212;48.830;8.730;2023-01-01T08:53:47;4.47;;;1.40;;
27847;SDS011;15212;48.830;8.730;2023-01-01T08:56:16;3.42;;;1.35;;
27847;SDS011;15212;48.830;8.730;2023-01-01T08:58:45;3.65;;;1.30;;
27847;SDS011;15212;48.830;8.730;2023-01-01T09:01:14;4.70;;;1.20;;
27847;SDS011;15212;48.830;8.730;2023-01-01T09:03:44;5.53;;;1.57;;
27847;SDS011;15212;48.830;8.730;2023-01-01T09:06:13;3.05;;;1.20;;
27847;SDS011;15212;48.830;8.730;2023-01-01T09:08:42;2.83;;;1.17;;
27847;SDS011;15212;48.830;8.730;2023-01-01T09:11:15;4.60;;;1.45;;
27847;SDS011;15212;48.830;8.730;2023-01-01T09:13:48;3.35;;;1.80;;
27847;SDS011;15212;48.830;8.730;2023-01-01T09:16:17;2.95;;;1.17;;
27847;SDS011;15212;48.830;8.730;2023-01-01T09:18:46;3.00;;;1.25;;
27847;SDS011;15212;48.830;8.730;2023-01-01T09:21:14;3.87;;;1.67;;
27847;SDS011;15212;48.830;8.730;2023-01-01T09:23:42;4.17;;;1.40;;
27847;SDS011;15212;48.830;8.730;2023-01-01T09:26:11;3.67;;;1.60;;
27847;SDS011;15212;48.830;8.730;2023-01-01T09:28:39;4.75;;;1.80;;
27847;SDS011;15212;48.830;8.730;2023-01-01T09:31:08;5.30;;;1.42;;
27847;SDS011;15212;48.830;8.730;2023-01-01T09:33:36;8.75;;;1.47;;
27847;SDS011;15212;48.830;8.730;2023-01-01T09:38:55;3.90;;;1.32;;
27847;SDS011;15212;48.830;8.730;2023-01-01T09:41:35;5.45;;;1.50;;
27847;SDS011;15212;48.830;8.730;2023-01-01T09:44:20;4.62;;;1.20;;
27847;SDS011;15212;48.830;8.730;2023-01-01T09:47:52;5.10;;;1.90;;
27847;SDS011;15212;48.830;8.730;2023-01-01T09:49:50;4.00;;;2.10;;
27847;SDS011;15212;48.830;8.730;2023-01-01T09:52:22;5.75;;;1.60;;
27847;SDS011;15212;48.830;8.730;2023-01-01T09:54:55;4.30;;;1.42;;
27847;SDS011;15212;48.830;8.730;2023-01-01T09:57:29;4.10;;;1.40;;
27847;SDS011;15212;48.830;8.730;2023-01-01T09:59:58;3.05;;;1.20;;
27847;SDS011;15212;48.830;8.730;2023-01-01T10:02:40;3.85;;;1.40;;
27847;SDS011;15212;48.830;8.730;2023-01-01T10:05:36;3.15;;;1.20;;
27847;SDS011;15212;48.830;8.730;2023-01-01T10:08:36;7.40;;;1.60;;
27847;SDS011;15212;48.830;8.730;2023-01-01T10:14:29;9.50;;;2.10;;
27847;SDS011;15212;48.830;8.730;2023-01-01T10:16:47;5.45;;;1.40;;
27847;SDS011;15212;48.830;8.730;2023-01-01T10:19:23;5.25;;;2.00;;
27847;SDS011;15212;48.830;8.730;2023-01-01T10:22:02;3.85;;;1.22;;
27847;SDS011;15212;48.830;8.730;2023-01-01T10:27:22;3.33;;;1.00;;
27847;SDS011;15212;48.830;8.730;2023-01-01T10:30:12;2.00;;;1.15;;
27847;SDS011;15212;48.830;8.730;2023-01-01T10:32:49;2.47;;;1.02;;
27847;SDS011;15212;48.830;8.730;2023-01-01T10:35:25;6.53;;;1.60;;
27847;SDS011;15212;48.830;8.730;2023-01-01T10:37:57;2.98;;;1.30;;
27847;SDS011;15212;48.830;8.730;2023-01-01T10:40:27;3.08;;;1.00;;
27847;SDS011;15212;48.830;8.730;2023-01-01T10:42:58;5.78;;;1.45;;
27847;SDS011;15212;48.830;8.730;2023-01-01T10:45:33;3.80;;;1.10;;
27847;SDS011;15212;48.830;8.730;2023-01-01T10:50:50;6.12;;;1.37;;
27847;SDS011;15212;48.830;8.730;2023-01-01T10:53:36;6.10;;;1.55;;
27847;SDS011;15212;48.830;8.730;2023-01-01T10:56:14;5.70;;;1.40;;
27847;SDS011;15212;48.830;8.730;2023-01-01T10:58:48;3.65;;;1.17;;
27847;SDS011;15212;48.830;8.730;2023-01-01T11:01:25;7.62;;;1.50;;
27847;SDS011;15212;48.830;8.730;2023-01-01T11:06:45;6.67;;;1.37;;
27847;SDS011;15212;48.830;8.730;2023-01-01T11:09:21;5.17;;;1.27;;
27847;SDS011;15212;48.830;8.730;2023-01-01T11:11:58;2.45;;;1.00;;
27847;SDS011;15212;48.830;8.730;2023-01-01T11:14:36;5.53;;;1.20;;
27847;SDS011;15212;48.830;8.730;2023-01-01T11:17:21;8.23;;;1.47;;
27847;SDS011;15212;48.830;8.730;2023-01-01T11:19:59;2.25;;;1.10;;
27847;SDS011;15212;48.830;8.730;2023-01-01T11:22:37;5.83;;;1.67;;
27847;SDS011;15212;48.830;8.730;2023-01-01T11:27:52;3.67;;;1.22;;
27847;SDS011;15212;48.830;8.730;2023-01-01T11:30:39;6.50;;;1.20;;
27847;SDS011;15212;48.830;8.730;2023-01-01T11:33:12;8.58;;;1.57;;
27847;SDS011;15212;48.830;8.730;2023-01-01T11:35:49;5.03;;;1.15;;
27847;SDS011;15212;48.830;8.730;2023-01-01T11:38:21;3.17;;;1.17;;
27847;SDS011;15212;48.830;8.730;2023-01-01T11:40:52;6.17;;;1.35;;
27847;SDS011;15212;48.830;8.730;2023-01-01T11:43:25;4.42;;;1.35;;
27847;SDS011;15212;48.830;8.730;2023-01-01T11:45:56;8.13;;;1.07;;
27847;SDS011;15212;48.830;8.730;2023-01-01T11:48:27;6.05;;;1.75;;
27847;SDS011;15212;48.830;8.730;2023-01-01T11:51:01;5.67;;;1.42;;
27847;SDS011;15212;48.830;8.730;2023-01-01T11:53:34;8.30;;;1.37;;
27847;SDS011;15212;48.830;8.730;2023-01-01T11:58:59;5.90;;;1.27;;
27847;SDS011;15212;48.830;8.730;2023-01-01T12:01:39;3.15;;;1.20;;
27847;SDS011;15212;48.830;8.730;2023-01-01T12:04:31;4.30;;;1.02;;
27847;SDS011;15212;48.830;8.730;2023-01-01T12:07:20;6.40;;;1.27;;
27847;SDS011;15212;48.830;8.730;2023-01-01T12:09:57;5.15;;;1.27;;
27847;SDS011;15212;48.830;8.730;2023-01-01T12:12:42;7.50;;;1.50;;
27847;SDS011;15212;48.830;8.730;2023-01-01T12:15:36;5.45;;;1.17;;
27847;SDS011;15212;48.830;8.730;2023-01-01T12:18:43;3.87;;;1.22;;
27847;SDS011;15212;48.830;8.730;2023-01-01T12:21:32;4.00;;;1.20;;
27847;SDS011;15212;48.830;8.730;2023-01-01T12:24:02;5.37;;;1.40;;
27847;SDS011;15212;48.830;8.730;2023-01-01T12:26:45;11.70;;;1.47;;
27847;SDS011;15212;48.830;8.730;2023-01-01T12:46:55;5.20;;;1.65;;
27847;SDS011;15212;48.830;8.730;2023-01-01T12:55:45;6.80;;;1.10;;
27847;SDS011;15212;48.830;8.730;2023-01-01T13:01:15;6.95;;;1.57;;
27847;SDS011;15212;48.830;8.730;2023-01-01T13:04:16;4.85;;;1.60;;
27847;SDS011;15212;48.830;8.730;2023-01-01T13:09:23;1.82;;;1.22;;
27847;SDS011;15212;48.830;8.730;2023-01-01T13:11:58;5.53;;;1.50;;
27847;SDS011;15212;48.830;8.730;2023-01-01T13:14:38;2.52;;;0.95;;
27847;SDS011;15212;48.830;8.730;2023-01-01T13:19:58;3.90;;;1.20;;
27847;SDS011;15212;48.830;8.730;2023-01-01T13:22:39;3.60;;;1.25;;
27847;SDS011;15212;48.830;8.730;2023-01-01T13:38:48;4.67;;;1.50;;
27847;SDS011;15212;48.830;8.730;2023-01-01T13:41:44;4.60;;;1.60;;
27847;SDS011;15212;48.830;8.730;2023-01-01T13:44:20;5.97;;;1.20;;
27847;SDS011;15212;48.830;8.730;2023-01-01T13:46:50;6.53;;;1.42;;
27847;SDS011;15212;48.830;8.730;2023-01-01T13:49:46;4.72;;;1.25;;
27847;SDS011;15212;48.830;8.730;2023-01-01T13:58:29;4.33;;;1.27;;
27847;SDS011;15212;48.830;8.730;2023-01-01T14:01:58;6.17;;;1.65;;
27847;SDS011;15212;48.830;8.730;2023-01-01T14:03:46;4.62;;;1.40;;
27847;SDS011;15212;48.830;8.730;2023-01-01T14:08:59;5.25;;;1.50;;
27847;SDS011;15212;48.830;8.730;2023-01-01T14:11:33;5.85;;;1.47;;
27847;SDS011;15212;48.830;8.730;2023-01-01T14:14:01;6.60;;;1.70;;
27847;SDS011;15212;48.830;8.730;2023-01-01T14:16:31;4.03;;;1.20;;
27847;SDS011;15212;48.830;8.730;2023-01-01T14:18:59;5.42;;;1.57;;
27847;SDS011;15212;48.830;8.730;2023-01-01T14:21:29;2.58;;;1.30;;
27847;SDS011;15212;48.830;8.730;2023-01-01T14:24:00;3.92;;;1.70;;
27847;SDS011;15212;48.830;8.730;2023-01-01T14:26:35;4.35;;;1.65;;
27847;SDS011;15212;48.830;8.730;2023-01-01T14:29:05;4.87;;;1.62;;
27847;SDS011;15212;48.830;8.730;2023-01-01T14:31:41;6.15;;;2.37;;
27847;SDS011;15212;48.830;8.730;2023-01-01T14:34:14;9.08;;;1.82;;
27847;SDS011;15212;48.830;8.730;2023-01-01T14:37:02;3.87;;;1.35;;
27847;SDS011;15212;48.830;8.730;2023-01-01T14:39:32;3.67;;;1.40;;
27847;SDS011;15212;48.830;8.730;2023-01-01T14:44:44;6.25;;;1.75;;
27847;SDS011;15212;48.830;8.730;2023-01-01T14:47:20;4.45;;;1.75;;
27847;SDS011;15212;48.830;8.730;2023-01-01T14:49:52;5.70;;;1.62;;
27847;SDS011;15212;48.830;8.730;2023-01-01T14:52:31;4.60;;;1.60;;
27847;SDS011;15212;48.830;8.730;2023-01-01T14:55:01;4.15;;;1.40;;
27847;SDS011;15212;48.830;8.730;2023-01-01T14:57:32;3.55;;;1.72;;
27847;SDS011;15212;48.830;8.730;2023-01-01T15:00:13;9.00;;;2.10;;
27847;SDS011;15212;48.830;8.730;2023-01-01T15:02:50;5.22;;;1.57;;
27847;SDS011;15212;48.830;8.730;2023-01-01T15:07:57;4.65;;;1.62;;
27847;SDS011;15212;48.830;8.730;2023-01-01T15:10:29;6.55;;;1.80;;
27847;SDS011;15212;48.830;8.730;2023-01-01T15:13:03;4.65;;;1.82;;
27847;SDS011;15212;48.830;8.730;2023-01-01T15:15:36;4.50;;;1.90;;
27847;SDS011;15212;48.830;8.730;2023-01-01T15:21:12;4.22;;;1.60;;
27847;SDS011;15212;48.830;8.730;2023-01-01T15:23:53;6.85;;;1.90;;
27847;SDS011;15212;48.830;8.730;2023-01-01T15:26:27;6.33;;;2.20;;
27847;SDS011;15212;48.830;8.730;2023-01-01T15:29:14;5.85;;;1.92;;
27847;SDS011;15212;48.830;8.730;2023-01-01T15:31:49;4.53;;;1.67;;
27847;SDS011;15212;48.830;8.730;2023-01-01T15:34:39;8.88;;;2.30;;
27847;SDS011;15212;48.830;8.730;2023-01-01T15:37:21;9.25;;;2.22;;
27847;SDS011;15212;48.830;8.730;2023-01-01T15:39:59;5.78;;;2.05;;
27847;SDS011;15212;48.830;8.730;2023-01-01T15:42:32;7.00;;;2.00;;
27847;SDS011;15212;48.830;8.730;2023-01-01T15:45:19;7.87;;;2.25;;
27847;SDS011;15212;48.830;8.730;2023-01-01T15:48:19;5.50;;;1.90;;
27847;SDS011;15212;48.830;8.730;2023-01-01T15:53:28;6.92;;;2.25;;
27847;SDS011;15212;48.830;8.730;2023-01-01T15:56:04;7.28;;;2.30;;
27847;SDS011;15212;48.830;8.730;2023-01-01T15:58:39;6.85;;;2.55;;
27847;SDS011;15212;48.830;8.730;2023-01-01T16:01:30;8.48;;;2.77;;
27847;SDS011;15212;48.830;8.730;2023-01-01T16:04:14;7.83;;;2.50;;
27847;SDS011;15212;48.830;8.730;2023-01-01T16:06:46;6.05;;;2.95;;
27847;SDS011;15212;48.830;8.730;2023-01-01T16:09:20;8.28;;;2.35;;
27847;SDS011;15212;48.830;8.730;2023-01-01T16:11:52;4.95;;;2.20;;
27847;SDS011;15212;48.830;8.730;2023-01-01T16:14:24;5.75;;;2.12;;
27847;SDS011;15212;48.830;8.730;2023-01-01T16:16:53;7.70;;;2.80;;
27847;SDS011;15212;48.830;8.730;2023-01-01T16:19:25;7.35;;;2.25;;
27847;SDS011;15212;48.830;8.730;2023-01-01T16:21:56;8.80;;;2.25;;
27847;SDS011;15212;48.830;8.730;2023-01-01T16:24:24;7.42;;;2.47;;
27847;SDS011;15212;48.830;8.730;2023-01-01T16:26:54;7.60;;;2.85;;
27847;SDS011;15212;48.830;8.730;2023-01-01T16:29:22;7.22;;;2.70;;
27847;SDS011;15212;48.830;8.730;2023-01-01T16:31:50;7.08;;;2.45;;
27847;SDS011;15212;48.830;8.730;2023-01-01T16:34:19;5.78;;;2.62;;
27847;SDS011;15212;48.830;8.730;2023-01-01T16:36:47;7.20;;;2.50;;
27847;SDS011;15212;48.830;8.730;2023-01-01T16:39:16;4.75;;;2.30;;
27847;SDS011;15212;48.830;8.730;2023-01-01T16:41:45;8.13;;;2.33;;
27847;SDS011;15212;48.830;8.730;2023-01-01T16:44:13;5.90;;;2.40;;
27847;SDS011;15212;48.830;8.730;2023-01-01T16:46:42;6.42;;;2.30;;
27847;SDS011;15212;48.830;8.730;2023-01-01T16:49:11;6.50;;;2.15;;
27847;SDS011;15212;48.830;8.730;2023-01-01T16:51:39;6.58;;;2.35;;
27847;SDS011;15212;48.830;8.730;2023-01-01T16:54:07;9.98;;;4.05;;
27847;SDS011;15212;48.830;8.730;2023-01-01T16:56:36;3.87;;;2.20;;
27847;SDS011;15212;48.830;8.730;2023-01-01T16:59:04;4.62;;;2.20;;
27847;SDS011;15212;48.830;8.730;2023-01-01T17:01:33;6.87;;;2.12;;
27847;SDS011;15212;48.830;8.730;2023-01-01T17:04:02;5.00;;;2.00;;
27847;SDS011;15212;48.830;8.730;2023-01-01T17:06:31;5.83;;;2.27;;
27847;SDS011;15212;48.830;8.730;2023-01-01T17:08:59;8.33;;;2.15;;